createdAt,value
2019-05-10T00:00:06.906Z,9.18
2019-05-10T00:02:53.159Z,8.68
2019-05-10T00:05:39.990Z,9.55
2019-05-10T00:08:26.962Z,10.20
2019-05-10T00:10:57.477Z,7.60
2019-05-10T00:13:27.368Z,11.22
2019-05-10T00:15:55.817Z,7.37
2019-05-10T00:18:24.240Z,11.53
2019-05-10T00:20:52.667Z,9.08
2019-05-10T00:23:21.094Z,9.70
2019-05-10T00:25:51.321Z,11.33
2019-05-10T00:28:19.664Z,12.43
2019-05-10T00:30:48.149Z,9.30
2019-05-10T00:33:16.652Z,10.85
2019-05-10T00:35:45.084Z,10.35
2019-05-10T00:38:13.519Z,10.03
2019-05-10T00:40:41.954Z,13.65
2019-05-10T00:43:10.385Z,10.68
2019-05-10T00:45:38.796Z,12.63
2019-05-10T00:48:07.230Z,10.32
2019-05-10T00:50:35.646Z,11.68
2019-05-10T00:53:04.923Z,12.10
2019-05-10T00:55:33.376Z,12.65
2019-05-10T00:58:01.800Z,11.78
2019-05-10T01:00:30.298Z,14.53
2019-05-10T01:02:58.740Z,11.12
2019-05-10T01:05:27.248Z,11.90
2019-05-10T01:07:55.676Z,11.00
2019-05-10T01:10:24.120Z,12.50
2019-05-10T01:12:52.541Z,16.80
2019-05-10T01:15:21.039Z,13.38
2019-05-10T01:17:49.478Z,13.93
2019-05-10T01:20:17.899Z,20.88
2019-05-10T01:22:46.355Z,14.60
2019-05-10T01:25:14.938Z,20.70
2019-05-10T01:27:43.446Z,18.98
2019-05-10T01:30:12.142Z,18.55
2019-05-10T01:32:40.735Z,23.75
2019-05-10T01:35:09.297Z,21.87
2019-05-10T01:37:37.746Z,18.07
2019-05-10T01:40:06.724Z,16.70
2019-05-10T01:42:35.146Z,20.95
2019-05-10T01:45:05.082Z,19.62
2019-05-10T01:47:33.564Z,21.33
2019-05-10T01:50:01.968Z,34.50
2019-05-10T01:52:30.409Z,28.07
2019-05-10T01:54:58.860Z,26.25
2019-05-10T01:57:27.328Z,23.70
2019-05-10T01:59:55.722Z,25.72
2019-05-10T02:02:24.198Z,30.57
2019-05-10T02:04:52.629Z,30.37
2019-05-10T02:07:21.048Z,36.33
2019-05-10T02:09:49.510Z,37.85
2019-05-10T02:12:17.932Z,35.78
2019-05-10T02:14:47.138Z,40.30
2019-05-10T02:17:15.586Z,39.78
2019-05-10T02:19:44.052Z,36.28
2019-05-10T02:22:13.247Z,36.95
2019-05-10T02:24:41.743Z,48.08
2019-05-10T02:27:10.156Z,37.03
2019-05-10T02:29:38.585Z,40.60
2019-05-10T02:32:07.046Z,41.42
2019-05-10T02:34:35.637Z,39.35
2019-05-10T02:37:04.146Z,45.23
2019-05-10T02:39:32.582Z,40.25
2019-05-10T02:42:01.032Z,36.45
2019-05-10T02:44:29.455Z,40.17
2019-05-10T02:46:57.883Z,38.23
2019-05-10T02:49:26.318Z,44.18
2019-05-10T02:51:54.759Z,41.65
2019-05-10T02:54:23.202Z,40.10
2019-05-10T02:56:53.172Z,40.92
2019-05-10T02:59:21.867Z,49.53
2019-05-10T03:01:53.384Z,43.73
2019-05-10T03:04:23.847Z,43.70
2019-05-10T03:09:24.466Z,49.40
2019-05-10T03:11:55.285Z,50.58
2019-05-10T03:14:26.505Z,53.55
2019-05-10T03:16:54.947Z,40.92
2019-05-10T03:19:23.665Z,47.30
2019-05-10T03:21:57.555Z,51.18
2019-05-10T03:24:27.980Z,51.18
2019-05-10T03:26:56.162Z,51.50
2019-05-10T03:29:24.629Z,50.85
2019-05-10T03:31:53.036Z,47.50
2019-05-10T03:34:21.705Z,49.77
2019-05-10T03:36:50.298Z,52.80
2019-05-10T03:39:18.732Z,52.43
2019-05-10T03:41:47.284Z,50.95
2019-05-10T03:44:15.724Z,55.33
2019-05-10T03:46:44.144Z,45.28
2019-05-10T03:49:12.621Z,49.73
2019-05-10T03:51:41.049Z,52.27
2019-05-10T03:54:09.481Z,50.35
2019-05-10T03:56:37.922Z,48.05
2019-05-10T03:59:06.398Z,51.35
2019-05-10T04:01:35.681Z,46.23
2019-05-10T04:04:04.123Z,49.53
2019-05-10T04:06:32.550Z,46.83
2019-05-10T04:09:01.000Z,55.20
2019-05-10T04:11:29.420Z,45.00
2019-05-10T04:13:57.847Z,49.67
2019-05-10T04:16:26.309Z,45.65
2019-05-10T04:18:54.786Z,49.25
2019-05-10T04:21:23.267Z,47.27
2019-05-10T04:23:51.683Z,44.95
2019-05-10T04:26:20.119Z,44.27
2019-05-10T04:28:48.828Z,40.88
2019-05-10T04:31:17.254Z,47.65
2019-05-10T04:33:45.715Z,46.55
2019-05-10T04:36:14.133Z,42.40
2019-05-10T04:38:42.583Z,45.70
2019-05-10T04:41:11.036Z,43.87
2019-05-10T04:43:39.459Z,44.18
2019-05-10T04:46:08.239Z,44.00
2019-05-10T04:48:36.741Z,40.60
2019-05-10T04:51:05.169Z,52.45
2019-05-10T04:53:33.586Z,42.60
2019-05-10T04:56:02.016Z,43.30
2019-05-10T04:58:30.481Z,36.83
2019-05-10T05:00:58.928Z,44.38
2019-05-10T05:03:27.370Z,49.33
2019-05-10T05:05:55.798Z,41.95
2019-05-10T05:08:24.287Z,49.33
2019-05-10T05:10:52.729Z,47.27
2019-05-10T05:13:21.124Z,43.83
2019-05-10T05:15:49.557Z,43.63
2019-05-10T05:18:17.984Z,45.17
2019-05-10T05:20:46.447Z,41.75
2019-05-10T05:23:27.311Z,44.00
2019-05-10T05:25:55.822Z,38.10
2019-05-10T05:28:24.706Z,42.00
2019-05-10T05:30:53.161Z,40.48
2019-05-10T05:33:21.586Z,40.80
2019-05-10T05:35:50.027Z,36.77
2019-05-10T05:38:18.464Z,40.70
2019-05-10T05:40:47.088Z,43.17
2019-05-10T05:43:15.510Z,36.63
2019-05-10T05:45:44.284Z,40.80
2019-05-10T05:48:16.091Z,36.38
2019-05-10T05:50:42.888Z,39.20
2019-05-10T05:53:11.316Z,39.18
2019-05-10T05:55:39.836Z,45.40
2019-05-10T05:58:24.096Z,48.08
2019-05-10T06:00:44.803Z,39.50
2019-05-10T06:03:08.582Z,36.53
2019-05-10T06:05:37.462Z,39.95
2019-05-10T06:08:21.446Z,38.55
2019-05-10T06:10:36.233Z,40.60
2019-05-10T06:13:04.640Z,38.90
2019-05-10T06:15:33.079Z,39.78
2019-05-10T06:18:03.277Z,43.73
2019-05-10T06:20:31.685Z,43.28
2019-05-10T06:23:06.267Z,40.95
2019-05-10T06:25:39.300Z,38.70
2019-05-10T06:28:00.423Z,39.20
2019-05-10T06:30:28.850Z,41.10
2019-05-10T06:33:00.820Z,36.13
2019-05-10T06:35:27.484Z,39.10
2019-05-10T06:37:55.910Z,37.27
2019-05-10T06:40:32.597Z,32.63
2019-05-10T06:42:54.527Z,31.63
2019-05-10T06:45:22.954Z,33.73
2019-05-10T06:47:53.425Z,32.00
2019-05-10T06:50:29.057Z,26.45
2019-05-10T06:52:52.331Z,32.00
2019-05-10T06:55:20.933Z,24.98
2019-05-10T06:57:50.423Z,25.25
2019-05-10T07:00:19.840Z,26.42
2019-05-10T07:02:48.270Z,26.77
2019-05-10T07:05:16.711Z,20.02
2019-05-10T07:07:45.742Z,23.52
2019-05-10T07:10:18.997Z,26.50
2019-05-10T07:12:45.681Z,21.88
2019-05-10T07:15:14.733Z,24.60
2019-05-10T07:17:46.992Z,22.25
2019-05-10T07:20:13.863Z,19.87
2019-05-10T07:22:42.561Z,24.82
2019-05-10T07:25:11.450Z,21.17
2019-05-10T07:27:39.883Z,26.57
2019-05-10T07:30:08.573Z,27.48
2019-05-10T07:32:37.435Z,26.75
2019-05-10T07:35:06.951Z,28.60
2019-05-10T07:37:36.052Z,26.10
2019-05-10T07:40:06.724Z,30.37
2019-05-10T07:42:39.914Z,34.58
2019-05-10T07:45:08.908Z,32.75
2019-05-10T07:47:37.349Z,33.55
2019-05-10T07:50:09.775Z,36.65
2019-05-10T07:52:43.357Z,33.05
2019-05-10T07:55:10.324Z,33.02
2019-05-10T07:57:38.416Z,30.90
2019-05-10T08:00:07.849Z,31.05
2019-05-10T08:02:36.278Z,30.75
2019-05-10T08:05:11.082Z,26.33
2019-05-10T08:07:38.548Z,29.32
2019-05-10T08:10:08.749Z,25.53
2019-05-10T08:12:41.321Z,27.13
2019-05-10T08:15:09.214Z,27.45
2019-05-10T08:17:41.063Z,25.90
2019-05-10T08:20:14.596Z,27.62
2019-05-10T08:22:41.413Z,24.37
2019-05-10T08:25:09.082Z,22.45
2019-05-10T08:27:44.005Z,21.80
2019-05-10T08:30:22.605Z,22.15
2019-05-10T08:32:39.061Z,20.27
2019-05-10T08:35:15.951Z,19.67
2019-05-10T08:40:06.871Z,19.62
2019-05-10T08:42:44.196Z,18.05
2019-05-10T08:45:08.962Z,22.35
2019-05-10T08:47:37.260Z,19.82
2019-05-10T08:50:22.399Z,23.32
2019-05-10T08:52:36.322Z,19.10
2019-05-10T08:55:07.492Z,23.92
2019-05-10T08:57:43.337Z,20.37
2019-05-10T09:02:38.457Z,26.68
2019-05-10T09:05:07.138Z,20.35
2019-05-10T09:07:39.017Z,12.93
2019-05-10T09:10:09.833Z,15.28
2019-05-10T09:12:41.760Z,10.18
2019-05-10T09:15:12.580Z,12.98
2019-05-10T09:17:42.608Z,12.63
2019-05-10T09:20:14.026Z,11.22
2019-05-10T09:22:42.367Z,14.07
2019-05-10T09:25:12.843Z,13.20
2019-05-10T09:27:43.204Z,16.20
2019-05-10T09:30:14.216Z,16.77
2019-05-10T09:32:43.532Z,14.23
2019-05-10T09:35:12.882Z,15.10
2019-05-10T09:37:42.217Z,14.78
2019-05-10T09:40:13.303Z,13.55
2019-05-10T09:42:43.712Z,11.45
2019-05-10T09:45:12.914Z,9.98
2019-05-10T09:47:43.347Z,8.48
2019-05-10T09:50:12.767Z,10.50
2019-05-10T09:52:41.417Z,7.95
2019-05-10T09:55:14.489Z,10.05
2019-05-10T09:57:40.086Z,8.90
2019-05-10T10:00:09.757Z,8.25
2019-05-10T10:02:40.675Z,8.95
2019-05-10T10:05:08.669Z,8.18
2019-05-10T10:07:37.455Z,12.47
2019-05-10T10:10:07.343Z,12.93
2019-05-10T10:12:37.301Z,15.65
2019-05-10T10:17:38.652Z,12.05
2019-05-10T10:20:08.441Z,10.93
2019-05-10T10:22:38.100Z,10.20
2019-05-10T10:25:07.374Z,8.88
2019-05-10T10:27:39.337Z,13.00
2019-05-10T10:30:12.637Z,8.65
2019-05-10T10:32:38.315Z,7.17
2019-05-10T10:35:07.831Z,8.53
2019-05-10T10:37:37.849Z,7.90
2019-05-10T10:40:08.575Z,6.93
2019-05-10T10:42:38.237Z,6.92
2019-05-10T10:45:08.243Z,8.40
2019-05-10T10:47:38.116Z,7.20
2019-05-10T10:50:13.278Z,11.00
2019-05-10T10:52:38.836Z,8.88
2019-05-10T10:55:11.390Z,6.72
2019-05-10T10:57:38.358Z,6.67
2019-05-10T11:00:09.827Z,13.32
2019-05-10T11:02:41.242Z,6.90
2019-05-10T11:05:09.142Z,8.68
2019-05-10T11:07:41.505Z,8.08
2019-05-10T11:10:17.955Z,6.95
2019-05-10T11:12:41.018Z,7.90
2019-05-10T11:15:11.221Z,7.12
2019-05-10T11:17:40.767Z,9.40
2019-05-10T11:22:41.832Z,6.90
2019-05-10T11:25:10.436Z,9.85
2019-05-10T11:27:38.881Z,7.70
2019-05-10T11:30:08.047Z,9.18
2019-05-10T11:32:36.485Z,6.97
2019-05-10T11:35:06.186Z,8.03
2019-05-10T11:37:36.307Z,9.18
2019-05-10T11:40:11.325Z,10.65
2019-05-10T11:42:43.772Z,8.45
2019-05-10T11:45:11.189Z,9.00
2019-05-10T11:47:40.936Z,8.00
2019-05-10T11:50:26.609Z,11.18
2019-05-10T11:52:41.983Z,9.88
2019-05-10T11:55:11.732Z,11.12
2019-05-10T11:57:43.967Z,8.88
2019-05-10T12:00:24.528Z,8.43
2019-05-10T12:03:01.703Z,19.70
2019-05-10T12:05:20.102Z,9.65
2019-05-10T12:07:45.847Z,9.83
2019-05-10T12:13:00.489Z,12.23
2019-05-10T12:15:14.209Z,17.77
2019-05-10T12:17:46.336Z,11.38
2019-05-10T12:20:16.925Z,11.40
2019-05-10T12:22:47.492Z,14.87
2019-05-10T12:25:36.390Z,11.53
2019-05-10T12:26:27.548Z,10.45
2019-05-10T12:27:48.649Z,13.25
2019-05-10T12:30:16.049Z,15.15
2019-05-10T12:32:55.510Z,10.08
2019-05-10T12:35:14.942Z,9.70
2019-05-10T12:37:46.473Z,12.35
2019-05-10T12:40:15.081Z,8.85
2019-05-10T12:45:13.440Z,10.63
2019-05-10T12:47:41.879Z,7.72
2019-05-10T12:50:11.539Z,11.60
2019-05-10T12:52:42.990Z,9.00
2019-05-10T12:55:10.599Z,8.10
2019-05-10T12:57:42.936Z,7.83
2019-05-10T13:02:39.587Z,12.35
2019-05-10T13:05:08.440Z,5.90
2019-05-10T13:07:37.341Z,11.25
2019-05-10T13:10:09.344Z,7.97
2019-05-10T13:12:44.552Z,11.35
2019-05-10T13:15:09.168Z,6.37
2019-05-10T13:17:37.592Z,6.87
2019-05-10T13:20:09.266Z,11.45
2019-05-10T13:22:39.466Z,15.68
2019-05-10T13:25:08.406Z,14.60
2019-05-10T13:27:37.020Z,13.10
2019-05-10T13:30:07.361Z,13.65
2019-05-10T13:32:35.868Z,14.38
2019-05-10T13:35:05.542Z,17.57
2019-05-10T13:37:33.997Z,14.18
2019-05-10T13:40:05.443Z,13.88
2019-05-10T13:42:36.417Z,15.53
2019-05-10T13:45:02.742Z,13.80
2019-05-10T13:47:31.200Z,13.93
2019-05-10T13:49:59.619Z,17.48
2019-05-10T13:52:29.909Z,18.27
2019-05-10T13:54:58.207Z,16.20
2019-05-10T13:57:26.708Z,13.70
2019-05-10T13:59:57.308Z,13.93
2019-05-10T14:02:32.464Z,13.58
2019-05-10T14:04:55.471Z,13.55
2019-05-10T14:07:23.932Z,13.98
2019-05-10T14:09:52.371Z,15.68
2019-05-10T14:12:23.218Z,14.28
2019-05-10T14:14:55.605Z,13.60
2019-05-10T14:17:21.193Z,18.23
2019-05-10T14:19:49.650Z,17.70
2019-05-10T14:22:18.066Z,13.43
2019-05-10T14:24:52.175Z,16.77
2019-05-10T14:27:18.170Z,14.47
2019-05-10T14:29:46.631Z,17.05
2019-05-10T14:32:15.088Z,15.63
2019-05-10T14:34:44.483Z,14.58
2019-05-10T14:37:14.152Z,15.23
2019-05-10T14:39:43.823Z,17.60
2019-05-10T14:42:12.259Z,18.45
2019-05-10T14:44:40.692Z,14.05
2019-05-10T14:47:11.098Z,13.55
2019-05-10T14:52:08.643Z,20.10
2019-05-10T14:54:43.536Z,13.58
2019-05-10T14:57:07.304Z,20.75
2019-05-10T14:59:35.728Z,21.77
2019-05-10T15:02:04.658Z,18.92
2019-05-10T15:04:48.421Z,15.10
2019-05-10T15:07:03.219Z,17.52
2019-05-10T15:09:31.688Z,11.38
2019-05-10T15:12:00.133Z,10.15
2019-05-10T15:14:28.553Z,14.15
2019-05-10T15:16:56.983Z,14.03
2019-05-10T15:19:27.303Z,12.65
2019-05-10T15:21:55.558Z,9.18
2019-05-10T15:24:24.000Z,14.45
2019-05-10T15:26:52.411Z,9.68
2019-05-10T15:29:22.576Z,11.08
2019-05-10T15:31:51.075Z,15.63
2019-05-10T15:34:19.517Z,15.30
2019-05-10T15:36:47.946Z,12.43
2019-05-10T15:39:16.365Z,14.65
2019-05-10T15:41:44.801Z,11.57
2019-05-10T15:44:13.222Z,14.98
2019-05-10T15:46:42.496Z,10.88
2019-05-10T15:49:13.614Z,11.00
2019-05-10T15:51:41.370Z,11.35
2019-05-10T15:54:09.809Z,17.80
2019-05-10T15:56:41.803Z,17.95
2019-05-10T15:59:12.712Z,7.62
2019-05-10T16:01:38.537Z,11.53
2019-05-10T16:04:06.977Z,12.78
2019-05-10T16:06:37.670Z,12.60
2019-05-10T16:09:16.797Z,11.68
2019-05-10T16:11:37.525Z,16.37
2019-05-10T16:14:06.433Z,13.95
2019-05-10T16:16:37.230Z,18.32
2019-05-10T16:19:05.026Z,15.08
2019-05-10T16:21:33.447Z,14.05
2019-05-10T16:24:01.873Z,15.08
2019-05-10T16:26:30.323Z,13.05
2019-05-10T16:29:02.141Z,20.40
2019-05-10T16:31:28.934Z,11.80
2019-05-10T16:33:57.442Z,12.78
2019-05-10T16:36:28.528Z,15.50
2019-05-10T16:38:56.046Z,15.28
2019-05-10T16:41:26.884Z,19.67
2019-05-10T16:43:57.842Z,11.30
2019-05-10T16:46:24.790Z,15.88
2019-05-10T16:48:53.218Z,13.83
2019-05-10T16:51:21.650Z,14.93
2019-05-10T16:53:50.084Z,10.68
2019-05-10T16:56:19.486Z,17.95
2019-05-10T16:58:53.206Z,16.60
2019-05-10T17:01:24.815Z,22.10
2019-05-10T17:03:51.081Z,15.77
2019-05-10T17:06:19.145Z,13.75
2019-05-10T17:08:47.604Z,12.58
2019-05-10T17:11:16.024Z,13.00
2019-05-10T17:13:44.504Z,15.65
2019-05-10T17:16:17.094Z,15.70
2019-05-10T17:18:43.080Z,13.58
2019-05-10T17:21:11.504Z,13.68
2019-05-10T17:23:41.470Z,12.63
2019-05-10T17:26:10.090Z,13.95
2019-05-10T17:28:38.524Z,10.28
2019-05-10T17:31:08.129Z,9.80
2019-05-10T17:33:42.801Z,10.23
2019-05-10T17:36:08.700Z,12.28
2019-05-10T17:38:37.367Z,14.55
2019-05-10T17:41:05.912Z,13.10
2019-05-10T17:43:34.363Z,14.70
2019-05-10T17:46:02.789Z,21.90
2019-05-10T17:48:31.229Z,18.57
2019-05-10T17:50:59.673Z,16.20
2019-05-10T17:53:28.107Z,12.37
2019-05-10T17:56:01.767Z,10.50
2019-05-10T17:58:33.006Z,17.67
2019-05-10T18:00:57.658Z,14.33
2019-05-10T18:03:26.082Z,15.75
2019-05-10T18:05:54.521Z,13.95
2019-05-10T18:08:22.975Z,15.85
2019-05-10T18:10:51.409Z,19.23
2019-05-10T18:15:49.183Z,19.25
2019-05-10T18:18:18.486Z,16.50
2019-05-10T18:20:46.936Z,14.07
2019-05-10T18:23:21.134Z,18.77
2019-05-10T18:25:45.514Z,17.52
2019-05-10T18:28:17.775Z,19.27
2019-05-10T18:30:44.133Z,14.43
2019-05-10T18:33:14.050Z,16.45
2019-05-10T18:35:47.444Z,13.65
2019-05-10T18:38:13.002Z,21.27
2019-05-10T18:40:41.420Z,12.35
2019-05-10T18:43:09.864Z,24.82
2019-05-10T18:45:38.300Z,11.40
2019-05-10T18:48:06.838Z,19.32
2019-05-10T18:50:39.635Z,14.28
2019-05-10T18:55:33.081Z,17.12
2019-05-10T18:58:01.528Z,15.10
2019-05-10T19:00:29.953Z,14.15
2019-05-10T19:02:58.373Z,17.57
2019-05-10T19:05:31.461Z,23.40
2019-05-10T19:08:04.694Z,14.38
2019-05-10T19:10:27.127Z,18.70
2019-05-10T19:13:01.624Z,16.33
2019-05-10T19:15:26.266Z,16.67
2019-05-10T19:17:54.629Z,16.23
2019-05-10T19:20:23.069Z,29.70
2019-05-10T19:22:51.492Z,24.43
2019-05-10T19:25:19.939Z,21.35
2019-05-10T19:27:50.751Z,15.32
2019-05-10T19:30:20.713Z,15.13
2019-05-10T19:32:54.036Z,18.40
2019-05-10T19:35:19.005Z,21.07
2019-05-10T19:37:47.502Z,19.57
2019-05-10T19:40:16.091Z,25.05
2019-05-10T19:42:49.315Z,19.52
2019-05-10T19:45:19.410Z,20.80
2019-05-10T19:47:49.795Z,14.90
2019-05-10T19:50:16.542Z,21.42
2019-05-10T19:52:44.980Z,18.92
2019-05-10T19:55:19.516Z,19.02
2019-05-10T19:57:43.541Z,21.20
2019-05-10T20:00:12.625Z,25.05
2019-05-10T20:02:41.113Z,23.67
2019-05-10T20:05:09.803Z,16.15
2019-05-10T20:07:45.746Z,26.93
2019-05-10T20:10:08.825Z,20.62
2019-05-10T20:12:37.269Z,13.75
2019-05-10T20:15:09.637Z,19.60
2019-05-10T20:17:38.779Z,19.55
2019-05-10T20:20:10.220Z,17.63
2019-05-10T20:22:38.663Z,14.98
2019-05-10T20:25:08.723Z,15.20
2019-05-10T20:27:37.251Z,19.60
2019-05-10T20:30:07.899Z,20.97
2019-05-10T20:32:36.334Z,24.40
2019-05-10T20:35:06.897Z,23.80
2019-05-10T20:40:03.276Z,27.02
2019-05-10T20:42:31.687Z,19.65
2019-05-10T20:45:07.721Z,26.12
2019-05-10T20:47:30.256Z,25.97
2019-05-10T20:49:58.713Z,25.85
2019-05-10T20:52:27.161Z,12.78
2019-05-10T20:54:55.594Z,20.68
2019-05-10T20:57:24.019Z,20.02
2019-05-10T20:59:52.445Z,13.90
2019-05-10T21:02:20.929Z,29.77
2019-05-10T21:04:49.371Z,25.55
2019-05-10T21:07:17.812Z,27.00
2019-05-10T21:09:46.250Z,21.40
2019-05-10T21:12:14.697Z,23.83
2019-05-10T21:14:43.145Z,20.07
2019-05-10T21:17:11.569Z,17.75
2019-05-10T21:19:39.989Z,19.12
2019-05-10T21:22:08.592Z,25.70
2019-05-10T21:24:37.053Z,24.00
2019-05-10T21:27:05.706Z,19.32
2019-05-10T21:29:34.159Z,16.70
2019-05-10T21:32:02.627Z,16.40
2019-05-10T21:34:31.151Z,19.23
2019-05-10T21:36:59.587Z,21.73
2019-05-10T21:39:28.011Z,26.25
2019-05-10T21:41:56.452Z,25.17
2019-05-10T21:44:25.397Z,22.58
2019-05-10T21:46:54.052Z,17.95
2019-05-10T21:49:22.419Z,16.82
2019-05-10T21:51:50.856Z,21.77
2019-05-10T21:54:19.273Z,23.52
2019-05-10T21:56:47.691Z,22.30
2019-05-10T21:59:16.126Z,26.55
2019-05-10T22:01:44.555Z,17.82
2019-05-10T22:04:13.242Z,29.02
2019-05-10T22:06:41.706Z,28.35
2019-05-10T22:09:10.620Z,22.07
2019-05-10T22:11:39.015Z,19.80
2019-05-10T22:14:07.452Z,19.75
2019-05-10T22:16:35.877Z,25.95
2019-05-10T22:19:04.343Z,25.90
2019-05-10T22:21:32.761Z,25.10
2019-05-10T22:24:01.187Z,17.92
2019-05-10T22:26:29.641Z,30.77
2019-05-10T22:28:58.065Z,24.25
2019-05-10T22:31:26.483Z,25.48
2019-05-10T22:33:54.924Z,23.50
2019-05-10T22:36:23.367Z,28.45
2019-05-10T22:39:05.599Z,32.65
2019-05-10T22:41:22.030Z,22.27
2019-05-10T22:43:50.426Z,27.50
2019-05-10T22:46:18.847Z,25.90
2019-05-10T22:48:47.301Z,24.25
2019-05-10T22:51:15.857Z,23.67
2019-05-10T22:53:44.281Z,19.87
2019-05-10T22:56:12.706Z,24.50
2019-05-10T22:58:41.126Z,20.48
2019-05-10T23:01:09.587Z,25.20
2019-05-10T23:03:38.002Z,24.05
2019-05-10T23:06:06.469Z,26.62
2019-05-10T23:08:34.869Z,28.87
2019-05-10T23:11:03.321Z,34.85
2019-05-10T23:13:31.719Z,26.70
2019-05-10T23:16:00.234Z,28.40
2019-05-10T23:18:28.653Z,29.23
2019-05-10T23:20:57.108Z,23.20
2019-05-10T23:23:25.533Z,23.45
2019-05-10T23:25:54.131Z,24.10
2019-05-10T23:28:22.553Z,20.57
2019-05-10T23:30:56.623Z,25.80
2019-05-10T23:33:25.074Z,23.27
2019-05-10T23:35:53.488Z,30.97
2019-05-10T23:38:21.928Z,20.00
2019-05-10T23:40:50.375Z,25.90
2019-05-10T23:43:18.843Z,25.17
2019-05-10T23:45:47.274Z,35.28
2019-05-10T23:48:15.714Z,23.95
2019-05-10T23:50:44.149Z,25.68
2019-05-10T23:53:12.599Z,24.85
2019-05-10T23:55:41.024Z,32.25
2019-05-10T23:58:09.751Z,25.37
